sensor_id;sensor_type;location;lat;lon;timestamp;pressure;altitude;pressure_sealevel;temperature;humidity
74372;BME280;62885;51.374;6.170;2022-08-19T00:03:17;101042.91;;;21.16;72.42
74372;BME280;62885;51.374;6.170;2022-08-19T00:05:43;101035.59;;;21.17;72.62
74372;BME280;62885;51.374;6.170;2022-08-19T00:08:08;101035.25;;;21.20;72.56
74372;BME280;62885;51.374;6.170;2022-08-19T00:10:33;101035.59;;;21.17;72.42
74372;BME280;62885;51.374;6.170;2022-08-19T00:12:59;101039.47;;;21.14;72.38
74372;BME280;62885;51.374;6.170;2022-08-19T00:15:24;101036.94;;;21.13;72.61
74372;BME280;62885;51.374;6.170;2022-08-19T00:17:50;101036.25;;;21.11;72.75
74372;BME280;62885;51.374;6.170;2022-08-19T00:20:19;101042.06;;;21.08;72.76
74372;BME280;62885;51.374;6.170;2022-08-19T00:22:45;101057.56;;;21.07;73.07
74372;BME280;62885;51.374;6.170;2022-08-19T00:25:11;101049.72;;;21.04;73.27
74372;BME280;62885;51.374;6.170;2022-08-19T00:27:37;101049.06;;;21.02;73.55
74372;BME280;62885;51.374;6.170;2022-08-19T00:30:05;101053.13;;;21.06;73.72
74372;BME280;62885;51.374;6.170;2022-08-19T00:32:31;101047.53;;;21.08;73.74
74372;BME280;62885;51.374;6.170;2022-08-19T00:34:58;101042.06;;;21.08;73.71
74372;BME280;62885;51.374;6.170;2022-08-19T00:37:23;101047.69;;;21.06;73.29
74372;BME280;62885;51.374;6.170;2022-08-19T00:39:51;101045.66;;;21.08;72.96
74372;BME280;62885;51.374;6.170;2022-08-19T00:42:19;101030.84;;;21.03;73.05
74372;BME280;62885;51.374;6.170;2022-08-19T00:44:45;101036.28;;;21.03;72.78
74372;BME280;62885;51.374;6.170;2022-08-19T00:47:11;101036.28;;;21.03;72.85
74372;BME280;62885;51.374;6.170;2022-08-19T00:49:50;101037.66;;;20.99;73.05
74372;BME280;62885;51.374;6.170;2022-08-19T00:52:21;101039.44;;;20.83;73.87
74372;BME280;62885;51.374;6.170;2022-08-19T00:54:48;101045.09;;;20.66;74.88
74372;BME280;62885;51.374;6.170;2022-08-19T00:57:17;101042.91;;;20.53;75.43
74372;BME280;62885;51.374;6.170;2022-08-19T00:59:46;101039.50;;;20.51;75.52
74372;BME280;62885;51.374;6.170;2022-08-19T01:02:15;101042.22;;;20.51;75.33
74372;BME280;62885;51.374;6.170;2022-08-19T01:04:40;101049.03;;;20.47;75.55
74372;BME280;62885;51.374;6.170;2022-08-19T01:07:06;101048.53;;;20.43;75.38
74372;BME280;62885;51.374;6.170;2022-08-19T01:09:32;101042.25;;;20.35;75.99
74372;BME280;62885;51.374;6.170;2022-08-19T01:11:57;101036.44;;;20.30;76.31
74372;BME280;62885;51.374;6.170;2022-08-19T01:14:23;101042.41;;;20.25;76.60
74372;BME280;62885;51.374;6.170;2022-08-19T01:16:50;101043.94;;;20.20;76.79
74372;BME280;62885;51.374;6.170;2022-08-19T01:19:33;101044.78;;;20.20;76.78
74372;BME280;62885;51.374;6.170;2022-08-19T01:22:06;101046.66;;;20.20;76.50
74372;BME280;62885;51.374;6.170;2022-08-19T01:24:34;101055.47;;;20.22;76.36
74372;BME280;62885;51.374;6.170;2022-08-19T01:26:59;101054.28;;;20.24;76.06
74372;BME280;62885;51.374;6.170;2022-08-19T01:29:28;101057.19;;;20.23;76.10
74372;BME280;62885;51.374;6.170;2022-08-19T01:31:54;101055.66;;;20.20;75.92
74372;BME280;62885;51.374;6.170;2022-08-19T01:34:19;101050.72;;;20.16;75.91
74372;BME280;62885;51.374;6.170;2022-08-19T01:36:46;101051.75;;;20.15;75.91
74372;BME280;62885;51.374;6.170;2022-08-19T01:39:15;101057.53;;;20.12;76.06
74372;BME280;62885;51.374;6.170;2022-08-19T01:41:41;101061.09;;;20.12;76.22
74372;BME280;62885;51.374;6.170;2022-08-19T01:44:08;101053.28;;;20.09;76.14
74372;BME280;62885;51.374;6.170;2022-08-19T01:46:34;101052.44;;;20.08;76.40
74372;BME280;62885;51.374;6.170;2022-08-19T01:49:01;101054.13;;;20.09;76.21
74372;BME280;62885;51.374;6.170;2022-08-19T01:51:27;101057.34;;;20.05;76.17
74372;BME280;62885;51.374;6.170;2022-08-19T01:53:53;101063.78;;;20.04;76.18
74372;BME280;62885;51.374;6.170;2022-08-19T01:56:19;101065.84;;;20.02;76.53
74372;BME280;62885;51.374;6.170;2022-08-19T01:58:51;101065.00;;;20.01;76.62
74372;BME280;62885;51.374;6.170;2022-08-19T02:01:18;101068.91;;;19.99;77.28
74372;BME280;62885;51.374;6.170;2022-08-19T02:03:44;101069.25;;;19.96;77.26
74372;BME280;62885;51.374;6.170;2022-08-19T02:06:11;101069.75;;;19.99;77.71
74372;BME280;62885;51.374;6.170;2022-08-19T02:08:37;101069.59;;;20.01;77.47
74372;BME280;62885;51.374;6.170;2022-08-19T02:11:04;101076.88;;;20.00;77.58
74372;BME280;62885;51.374;6.170;2022-08-19T02:13:29;101067.88;;;20.00;77.54
74372;BME280;62885;51.374;6.170;2022-08-19T02:15:55;101067.53;;;19.95;77.48
74372;BME280;62885;51.374;6.170;2022-08-19T02:18:20;101062.63;;;19.90;77.66
74372;BME280;62885;51.374;6.170;2022-08-19T02:20:46;101059.91;;;19.90;77.40
74372;BME280;62885;51.374;6.170;2022-08-19T02:23:14;101055.78;;;19.86;77.01
74372;BME280;62885;51.374;6.170;2022-08-19T02:25:44;101058.72;;;19.85;76.80
74372;BME280;62885;51.374;6.170;2022-08-19T02:28:10;101070.06;;;19.80;76.77
74372;BME280;62885;51.374;6.170;2022-08-19T02:30:37;101073.31;;;19.84;77.09
74372;BME280;62885;51.374;6.170;2022-08-19T02:33:03;101065.00;;;19.85;76.86
74372;BME280;62885;51.374;6.170;2022-08-19T02:35:28;101072.09;;;19.86;76.62
74372;BME280;62885;51.374;6.170;2022-08-19T02:37:53;101072.97;;;19.87;76.70
74372;BME280;62885;51.374;6.170;2022-08-19T02:40:37;101070.75;;;19.82;76.75
74372;BME280;62885;51.374;6.170;2022-08-19T02:43:05;101075.84;;;19.77;76.83
74372;BME280;62885;51.374;6.170;2022-08-19T02:45:37;101072.09;;;19.78;76.96
74372;BME280;62885;51.374;6.170;2022-08-19T02:48:03;101068.53;;;19.78;77.15
74372;BME280;62885;51.374;6.170;2022-08-19T02:50:30;101058.69;;;19.77;76.98
74372;BME280;62885;51.374;6.170;2022-08-19T02:52:56;101068.84;;;19.75;76.99
74372;BME280;62885;51.374;6.170;2022-08-19T02:55:21;101065.81;;;19.78;77.28
74372;BME280;62885;51.374;6.170;2022-08-19T02:57:47;101062.94;;;19.79;76.80
74372;BME280;62885;51.374;6.170;2022-08-19T03:00:13;101064.63;;;19.72;77.22
74372;BME280;62885;51.374;6.170;2022-08-19T03:02:39;101067.84;;;19.67;77.41
74372;BME280;62885;51.374;6.170;2022-08-19T03:05:08;101064.28;;;19.67;77.60
74372;BME280;62885;51.374;6.170;2022-08-19T03:07:35;101061.88;;;19.64;77.47
74372;BME280;62885;51.374;6.170;2022-08-19T03:10:01;101074.44;;;19.65;77.30
74372;BME280;62885;51.374;6.170;2022-08-19T03:12:26;101081.59;;;19.66;77.61
74372;BME280;62885;51.374;6.170;2022-08-19T03:14:51;101081.75;;;19.64;77.74
74372;BME280;62885;51.374;6.170;2022-08-19T03:17:18;101078.88;;;19.66;77.52
74372;BME280;62885;51.374;6.170;2022-08-19T03:19:43;101083.28;;;19.67;77.57
74372;BME280;62885;51.374;6.170;2022-08-19T03:22:09;101078.88;;;19.66;77.58
74372;BME280;62885;51.374;6.170;2022-08-19T03:24:35;101080.75;;;19.65;77.74
74372;BME280;62885;51.374;6.170;2022-08-19T03:27:00;101081.91;;;19.63;77.52
74372;BME280;62885;51.374;6.170;2022-08-19T03:29:27;101079.53;;;19.60;77.64
74372;BME280;62885;51.374;6.170;2022-08-19T03:31:53;101077.47;;;19.54;78.04
74372;BME280;62885;51.374;6.170;2022-08-19T03:34:25;101076.28;;;19.48;78.32
74372;BME280;62885;51.374;6.170;2022-08-19T03:36:56;101072.16;;;19.44;78.51
74372;BME280;62885;51.374;6.170;2022-08-19T03:39:23;101058.91;;;19.41;78.50
74372;BME280;62885;51.374;6.170;2022-08-19T03:41:49;101065.53;;;19.39;78.57
74372;BME280;62885;51.374;6.170;2022-08-19T03:44:18;101065.69;;;19.37;78.44
74372;BME280;62885;51.374;6.170;2022-08-19T03:46:46;101074.00;;;19.36;78.32
74372;BME280;62885;51.374;6.170;2022-08-19T03:49:12;101071.44;;;19.34;78.36
74372;BME280;62885;51.374;6.170;2022-08-19T03:51:38;101066.00;;;19.34;78.39
74372;BME280;62885;51.374;6.170;2022-08-19T03:54:07;101087.22;;;19.31;78.52
74372;BME280;62885;51.374;6.170;2022-08-19T03:56:35;101082.13;;;19.27;78.54
74372;BME280;62885;51.374;6.170;2022-08-19T03:59:01;101087.88;;;19.24;78.36
74372;BME280;62885;51.374;6.170;2022-08-19T04:01:28;101081.59;;;19.24;78.46
74372;BME280;62885;51.374;6.170;2022-08-19T04:03:55;101079.38;;;19.19;78.70
74372;BME280;62885;51.374;6.170;2022-08-19T04:06:22;101081.38;;;19.17;79.05
74372;BME280;62885;51.374;6.170;2022-08-19T04:08:50;101085.97;;;19.17;78.60
74372;BME280;62885;51.374;6.170;2022-08-19T04:11:18;101091.88;;;19.12;78.82
74372;BME280;62885;51.374;6.170;2022-08-19T04:13:49;101082.88;;;19.12;78.86
74372;BME280;62885;51.374;6.170;2022-08-19T04:16:17;101089.50;;;19.09;79.10
74372;BME280;62885;51.374;6.170;2022-08-19T04:18:43;101089.16;;;19.12;78.88
74372;BME280;62885;51.374;6.170;2022-08-19T04:21:16;101086.44;;;19.12;78.88
74372;BME280;62885;51.374;6.170;2022-08-19T04:23:41;101082.22;;;19.10;78.71
74372;BME280;62885;51.374;6.170;2022-08-19T04:26:07;101079.81;;;19.07;78.98
74372;BME280;62885;51.374;6.170;2022-08-19T04:28:37;101080.31;;;19.02;79.15
74372;BME280;62885;51.374;6.170;2022-08-19T04:31:02;101078.94;;;18.98;79.30
74372;BME280;62885;51.374;6.170;2022-08-19T04:33:30;101086.59;;;19.03;79.21
74372;BME280;62885;51.374;6.170;2022-08-19T04:35:56;101086.44;;;19.04;78.95
74372;BME280;62885;51.374;6.170;2022-08-19T04:38:23;101084.53;;;19.05;78.98
74372;BME280;62885;51.374;6.170;2022-08-19T04:40:50;101095.88;;;19.00;78.98
74372;BME280;62885;51.374;6.170;2022-08-19T04:43:36;101083.88;;;19.03;79.04
74372;BME280;62885;51.374;6.170;2022-08-19T04:46:10;101078.28;;;19.04;79.07
74372;BME280;62885;51.374;6.170;2022-08-19T04:48:37;101081.00;;;19.04;79.13
74372;BME280;62885;51.374;6.170;2022-08-19T04:51:07;101085.56;;;19.04;79.18
74372;BME280;62885;51.374;6.170;2022-08-19T04:53:36;101089.44;;;19.01;79.05
74372;BME280;62885;51.374;6.170;2022-08-19T04:56:08;101089.81;;;19.06;79.08
74372;BME280;62885;51.374;6.170;2022-08-19T04:58:35;101092.03;;;19.11;78.56
74372;BME280;62885;51.374;6.170;2022-08-19T05:01:01;101098.00;;;19.14;78.51
74372;BME280;62885;51.374;6.170;2022-08-19T05:03:26;101094.47;;;19.22;78.31
74372;BME280;62885;51.374;6.170;2022-08-19T05:05:52;101104.19;;;19.33;77.79
74372;BME280;62885;51.374;6.170;2022-08-19T05:08:20;101103.59;;;19.47;77.39
74372;BME280;62885;51.374;6.170;2022-08-19T05:10:48;101104.50;;;19.55;77.22
74372;BME280;62885;51.374;6.170;2022-08-19T05:13:15;101098.59;;;19.68;76.85
74372;BME280;62885;51.374;6.170;2022-08-19T05:15:41;101103.00;;;19.77;76.79
74372;BME280;62885;51.374;6.170;2022-08-19T05:18:07;101103.03;;;19.85;76.30
74372;BME280;62885;51.374;6.170;2022-08-19T05:20:51;101107.47;;;19.94;75.83
74372;BME280;62885;51.374;6.170;2022-08-19T05:23:35;101109.69;;;20.07;75.53
74372;BME280;62885;51.374;6.170;2022-08-19T05:26:00;101106.97;;;20.07;75.52
74372;BME280;62885;51.374;6.170;2022-08-19T05:28:25;101104.56;;;20.04;75.61
74372;BME280;62885;51.374;6.170;2022-08-19T05:30:51;101114.25;;;19.98;75.55
74372;BME280;62885;51.374;6.170;2022-08-19T05:33:17;101104.03;;;19.92;75.94
74372;BME280;62885;51.374;6.170;2022-08-19T05:35:43;101107.66;;;20.01;75.68
74372;BME280;62885;51.374;6.170;2022-08-19T05:38:10;101101.88;;;20.12;75.81
74372;BME280;62885;51.374;6.170;2022-08-19T05:40:37;101109.22;;;20.36;75.13
74372;BME280;62885;51.374;6.170;2022-08-19T05:43:05;101104.13;;;20.41;74.60
74372;BME280;62885;51.374;6.170;2022-08-19T05:45:31;101110.59;;;20.32;74.66
74372;BME280;62885;51.374;6.170;2022-08-19T05:47:56;101105.44;;;20.29;74.41
74372;BME280;62885;51.374;6.170;2022-08-19T05:50:22;101106.13;;;20.23;74.69
74372;BME280;62885;51.374;6.170;2022-08-19T05:52:48;101113.94;;;20.09;75.16
74372;BME280;62885;51.374;6.170;2022-08-19T05:55:13;101111.72;;;20.21;74.93
74372;BME280;62885;51.374;6.170;2022-08-19T05:57:39;101117.38;;;20.36;74.33
74372;BME280;62885;51.374;6.170;2022-08-19T06:00:05;101120.78;;;20.46;74.04
74372;BME280;62885;51.374;6.170;2022-08-19T06:02:34;101129.78;;;20.46;74.18
74372;BME280;62885;51.374;6.170;2022-08-19T06:05:00;101124.03;;;20.49;74.01
74372;BME280;62885;51.374;6.170;2022-08-19T06:07:27;101119.56;;;20.57;73.64
74372;BME280;62885;51.374;6.170;2022-08-19T06:09:54;101124.81;;;20.74;72.84
74372;BME280;62885;51.374;6.170;2022-08-19T06:12:20;101132.31;;;20.80;72.73
74372;BME280;62885;51.374;6.170;2022-08-19T06:14:56;101128.03;;;20.86;72.50
74372;BME280;62885;51.374;6.170;2022-08-19T06:17:22;101129.56;;;20.97;72.00
74372;BME280;62885;51.374;6.170;2022-08-19T06:19:50;101125.97;;;21.04;71.77
74372;BME280;62885;51.374;6.170;2022-08-19T06:22:15;101127.13;;;21.10;71.48
74372;BME280;62885;51.374;6.170;2022-08-19T06:24:41;101131.06;;;21.15;71.07
74372;BME280;62885;51.374;6.170;2022-08-19T06:27:06;101130.72;;;21.18;71.11
74372;BME280;62885;51.374;6.170;2022-08-19T06:29:32;101142.13;;;21.22;71.05
74372;BME280;62885;51.374;6.170;2022-08-19T06:32:01;101136.81;;;21.28;71.00
74372;BME280;62885;51.374;6.170;2022-08-19T06:34:28;101144.53;;;21.17;71.30
74372;BME280;62885;51.374;6.170;2022-08-19T06:36:56;101144.53;;;21.17;71.07
74372;BME280;62885;51.374;6.170;2022-08-19T06:39:27;101150.81;;;21.17;71.18
74372;BME280;62885;51.374;6.170;2022-08-19T06:41:57;101154.50;;;21.33;70.75
74372;BME280;62885;51.374;6.170;2022-08-19T06:44:24;101154.06;;;21.60;70.10
74372;BME280;62885;51.374;6.170;2022-08-19T06:46:51;101151.13;;;21.69;69.48
74372;BME280;62885;51.374;6.170;2022-08-19T06:49:17;101150.88;;;21.87;68.76
74372;BME280;62885;51.374;6.170;2022-08-19T06:51:45;101151.84;;;21.94;68.12
74372;BME280;62885;51.374;6.170;2022-08-19T06:54:16;101153.72;;;21.94;68.38
74372;BME280;62885;51.374;6.170;2022-08-19T06:56:42;101151.88;;;21.86;68.71
74372;BME280;62885;51.374;6.170;2022-08-19T06:59:15;101163.34;;;21.82;68.51
74372;BME280;62885;51.374;6.170;2022-08-19T07:01:47;101158.56;;;21.84;68.28
74372;BME280;62885;51.374;6.170;2022-08-19T07:04:16;101167.75;;;21.83;68.35
74372;BME280;62885;51.374;6.170;2022-08-19T07:06:42;101165.44;;;21.71;68.56
74372;BME280;62885;51.374;6.170;2022-08-19T07:09:10;101161.84;;;21.71;68.49
74372;BME280;62885;51.374;6.170;2022-08-19T07:11:35;101162.00;;;21.78;68.27
74372;BME280;62885;51.374;6.170;2022-08-19T07:14:01;101159.06;;;21.79;68.16
74372;BME280;62885;51.374;6.170;2022-08-19T07:16:27;101158.91;;;21.81;67.79
74372;BME280;62885;51.374;6.170;2022-08-19T07:18:54;101157.03;;;21.81;67.87
74372;BME280;62885;51.374;6.170;2022-08-19T07:21:25;101163.03;;;21.77;67.59
74372;BME280;62885;51.374;6.170;2022-08-19T07:23:55;101165.59;;;21.78;67.58
74372;BME280;62885;51.374;6.170;2022-08-19T07:26:27;101159.63;;;21.75;67.80
74372;BME280;62885;51.374;6.170;2022-08-19T07:28:53;101169.50;;;21.76;67.76
74372;BME280;62885;51.374;6.170;2022-08-19T07:31:21;101170.88;;;21.71;68.25
74372;BME280;62885;51.374;6.170;2022-08-19T07:33:48;101167.16;;;21.64;68.54
74372;BME280;62885;51.374;6.170;2022-08-19T07:36:17;101172.63;;;21.64;68.43
74372;BME280;62885;51.374;6.170;2022-08-19T07:38:46;101167.16;;;21.64;68.36
74372;BME280;62885;51.374;6.170;2022-08-19T07:41:17;101178.91;;;21.65;69.01
74372;BME280;62885;51.374;6.170;2022-08-19T07:43:43;101177.56;;;21.61;68.72
74372;BME280;62885;51.374;6.170;2022-08-19T07:46:09;101189.31;;;21.61;68.54
74372;BME280;62885;51.374;6.170;2022-08-19T07:48:35;101188.28;;;21.62;68.40
74372;BME280;62885;51.374;6.170;2022-08-19T07:51:04;101188.44;;;21.61;68.29
74372;BME280;62885;51.374;6.170;2022-08-19T07:53:31;101186.97;;;21.50;68.36
74372;BME280;62885;51.374;6.170;2022-08-19T07:55:58;101196.34;;;21.48;68.70
74372;BME280;62885;51.374;6.170;2022-08-19T07:58:27;101192.25;;;21.52;68.95
74372;BME280;62885;51.374;6.170;2022-08-19T08:00:53;101194.09;;;21.59;68.74
74372;BME280;62885;51.374;6.170;2022-08-19T08:03:20;101203.28;;;21.66;68.65
74372;BME280;62885;51.374;6.170;2022-08-19T08:06:07;101202.38;;;21.74;68.14
74372;BME280;62885;51.374;6.170;2022-08-19T08:08:51;101202.22;;;21.76;68.09
74372;BME280;62885;51.374;6.170;2022-08-19T08:11:35;101202.38;;;21.74;68.08
74372;BME280;62885;51.374;6.170;2022-08-19T08:14:01;101209.03;;;21.71;68.48
74372;BME280;62885;51.374;6.170;2022-08-19T08:16:26;101203.94;;;21.68;68.45
74372;BME280;62885;51.374;6.170;2022-08-19T08:18:55;101208.59;;;21.60;68.83
74372;BME280;62885;51.374;6.170;2022-08-19T08:21:20;101213.34;;;21.58;69.04
74372;BME280;62885;51.374;6.170;2022-08-19T08:23:45;101211.50;;;21.50;68.93
74372;BME280;62885;51.374;6.170;2022-08-19T08:26:11;101213.38;;;21.50;68.68
74372;BME280;62885;51.374;6.170;2022-08-19T08:28:39;101207.72;;;21.59;68.31
74372;BME280;62885;51.374;6.170;2022-08-19T08:31:05;101214.84;;;21.68;67.82
74372;BME280;62885;51.374;6.170;2022-08-19T08:33:30;101214.44;;;21.80;67.21
74372;BME280;62885;51.374;6.170;2022-08-19T08:35:56;101222.44;;;21.89;67.31
74372;BME280;62885;51.374;6.170;2022-08-19T08:38:21;101209.44;;;21.91;66.83
74372;BME280;62885;51.374;6.170;2022-08-19T08:43:29;101221.22;;;22.00;66.79
74372;BME280;62885;51.374;6.170;2022-08-19T08:51:29;101215.97;;;22.21;65.85
74372;BME280;62885;51.374;6.170;2022-08-19T08:53:58;101214.94;;;22.22;65.53
74372;BME280;62885;51.374;6.170;2022-08-19T08:56:24;101221.00;;;22.32;65.84
74372;BME280;62885;51.374;6.170;2022-08-19T08:59:00;101216.84;;;22.44;65.03
74372;BME280;62885;51.374;6.170;2022-08-19T09:01:27;101215.25;;;22.50;64.27
74372;BME280;62885;51.374;6.170;2022-08-19T09:03:53;101214.91;;;22.53;63.46
74372;BME280;62885;51.374;6.170;2022-08-19T09:16:49;101214.19;;;22.82;63.08
74372;BME280;62885;51.374;6.170;2022-08-19T09:19:16;101213.25;;;22.89;62.69
74372;BME280;62885;51.374;6.170;2022-08-19T09:21:42;101220.84;;;23.02;62.50
74372;BME280;62885;51.374;6.170;2022-08-19T09:24:07;101216.41;;;23.01;62.00
74372;BME280;62885;51.374;6.170;2022-08-19T09:26:33;101207.75;;;22.98;62.39
74372;BME280;62885;51.374;6.170;2022-08-19T09:28:59;101216.41;;;23.01;62.31
74372;BME280;62885;51.374;6.170;2022-08-19T09:31:30;101219.81;;;23.03;62.29
74372;BME280;62885;51.374;6.170;2022-08-19T09:33:58;101216.78;;;23.13;62.26
74372;BME280;62885;51.374;6.170;2022-08-19T09:36:26;101210.81;;;23.17;61.79
74372;BME280;62885;51.374;6.170;2022-08-19T09:38:55;101215.69;;;23.22;62.01
74372;BME280;62885;51.374;6.170;2022-08-19T09:41:23;101210.97;;;23.30;61.01
74372;BME280;62885;51.374;6.170;2022-08-19T09:43:50;101218.06;;;23.40;60.69
74372;BME280;62885;51.374;6.170;2022-08-19T09:46:22;101212.03;;;23.44;60.67
74372;BME280;62885;51.374;6.170;2022-08-19T09:48:49;101215.09;;;23.49;60.93
74372;BME280;62885;51.374;6.170;2022-08-19T09:51:20;101207.44;;;23.59;60.59
74372;BME280;62885;51.374;6.170;2022-08-19T09:53:47;101209.50;;;23.72;59.84
74372;BME280;62885;51.374;6.170;2022-08-19T09:56:16;101202.06;;;23.81;59.54
74372;BME280;62885;51.374;6.170;2022-08-19T09:58:41;101209.50;;;23.87;59.06
74372;BME280;62885;51.374;6.170;2022-08-19T10:01:07;101204.88;;;23.87;58.99
74372;BME280;62885;51.374;6.170;2022-08-19T10:03:35;101200.16;;;23.96;59.04
74372;BME280;62885;51.374;6.170;2022-08-19T10:06:03;101202.19;;;24.08;57.66
74372;BME280;62885;51.374;6.170;2022-08-19T10:08:32;101195.22;;;24.21;57.32
74372;BME280;62885;51.374;6.170;2022-08-19T10:10:58;101202.16;;;24.23;56.80
74372;BME280;62885;51.374;6.170;2022-08-19T10:13:26;101200.53;;;24.29;57.07
74372;BME280;62885;51.374;6.170;2022-08-19T10:15:53;101201.72;;;24.41;56.62
74372;BME280;62885;51.374;6.170;2022-08-19T10:18:20;101196.06;;;24.42;56.58
74372;BME280;62885;51.374;6.170;2022-08-19T10:20:48;101192.66;;;24.40;56.48
74372;BME280;62885;51.374;6.170;2022-08-19T10:23:14;101204.63;;;24.33;55.58
74372;BME280;62885;51.374;6.170;2022-08-19T10:25:41;101201.34;;;24.23;55.79
74372;BME280;62885;51.374;6.170;2022-08-19T10:28:06;101200.97;;;24.11;56.25
74372;BME280;62885;51.374;6.170;2022-08-19T10:30:33;101202.88;;;24.10;56.68
74372;BME280;62885;51.374;6.170;2022-08-19T10:32:58;101194.69;;;24.17;56.55
74372;BME280;62885;51.374;6.170;2022-08-19T10:35:24;101196.50;;;24.25;56.71
74372;BME280;62885;51.374;6.170;2022-08-19T10:37:54;101188.44;;;24.38;55.51
74372;BME280;62885;51.374;6.170;2022-08-19T10:40:24;101189.31;;;24.38;55.93
74372;BME280;62885;51.374;6.170;2022-08-19T10:42:50;101189.75;;;24.42;55.28
74372;BME280;62885;51.374;6.170;2022-08-19T10:45:15;101190.41;;;24.44;54.68
74372;BME280;62885;51.374;6.170;2022-08-19T10:47:41;101192.38;;;24.50;54.29
74372;BME280;62885;51.374;6.170;2022-08-19T10:50:07;101182.53;;;24.55;54.24
74372;BME280;62885;51.374;6.170;2022-08-19T10:53:08;101170.59;;;24.63;53.48
74372;BME280;62885;51.374;6.170;2022-08-19T10:55:34;101180.19;;;25.64;61.07
74372;BME280;62885;51.374;6.170;2022-08-19T10:58:19;101173.19;;;24.92;51.81
74372;BME280;62885;51.374;6.170;2022-08-19T11:00:56;101174.69;;;24.74;53.04
74372;BME280;62885;51.374;6.170;2022-08-19T11:03:23;101177.44;;;24.74;52.71
74372;BME280;62885;51.374;6.170;2022-08-19T11:06:02;101177.63;;;24.72;52.70
74372;BME280;62885;51.374;6.170;2022-08-19T11:08:27;101182.03;;;24.94;51.49
74372;BME280;62885;51.374;6.170;2022-08-19T11:10:54;101181.50;;;25.06;50.77
74372;BME280;62885;51.374;6.170;2022-08-19T11:13:22;101170.66;;;24.91;51.10
74372;BME280;62885;51.374;6.170;2022-08-19T11:15:56;101175.09;;;24.99;51.40
74372;BME280;62885;51.374;6.170;2022-08-19T11:18:21;101174.34;;;24.83;51.81
74372;BME280;62885;51.374;6.170;2022-08-19T11:20:47;101175.72;;;24.94;51.79
74372;BME280;62885;51.374;6.170;2022-08-19T11:23:12;101178.50;;;25.01;51.09
74372;BME280;62885;51.374;6.170;2022-08-19T11:25:38;101172.00;;;25.02;50.89
74372;BME280;62885;51.374;6.170;2022-08-19T11:28:04;101167.03;;;25.18;49.58
74372;BME280;62885;51.374;6.170;2022-08-19T11:30:30;101172.53;;;25.18;48.89
74372;BME280;62885;51.374;6.170;2022-08-19T11:32:55;101160.09;;;25.22;48.44
74372;BME280;62885;51.374;6.170;2022-08-19T11:35:20;101154.50;;;25.37;49.36
74372;BME280;62885;51.374;6.170;2022-08-19T11:37:48;101157.63;;;25.68;49.38
74372;BME280;62885;51.374;6.170;2022-08-19T11:40:13;101163.97;;;25.69;48.99
74372;BME280;62885;51.374;6.170;2022-08-19T11:42:39;101164.59;;;25.64;48.32
74372;BME280;62885;51.374;6.170;2022-08-19T11:45:26;101166.53;;;25.36;48.58
74372;BME280;62885;51.374;6.170;2022-08-19T11:47:53;101163.97;;;25.34;48.86
74372;BME280;62885;51.374;6.170;2022-08-19T11:50:19;101166.75;;;25.41;48.33
74372;BME280;62885;51.374;6.170;2022-08-19T11:52:45;101164.53;;;25.23;48.74
74372;BME280;62885;51.374;6.170;2022-08-19T11:55:12;101168.25;;;25.09;48.96
74372;BME280;62885;51.374;6.170;2022-08-19T11:57:38;101167.28;;;25.23;48.54
74372;BME280;62885;51.374;6.170;2022-08-19T12:00:06;101166.28;;;25.31;48.62
74372;BME280;62885;51.374;6.170;2022-08-19T12:02:33;101173.94;;;25.42;48.25
74372;BME280;62885;51.374;6.170;2022-08-19T12:04:58;101176.56;;;25.57;47.42
74372;BME280;62885;51.374;6.170;2022-08-19T12:07:24;101167.75;;;25.61;47.17
74372;BME280;62885;51.374;6.170;2022-08-19T12:09:50;101165.31;;;25.86;47.31
74372;BME280;62885;51.374;6.170;2022-08-19T12:12:15;101166.16;;;25.87;47.22
74372;BME280;62885;51.374;6.170;2022-08-19T12:14:41;101163.00;;;25.83;47.23
74372;BME280;62885;51.374;6.170;2022-08-19T12:17:06;101156.00;;;25.81;47.58
74372;BME280;62885;51.374;6.170;2022-08-19T12:19:36;101158.16;;;25.85;47.78
74372;BME280;62885;51.374;6.170;2022-08-19T12:22:01;101174.19;;;25.88;47.86
74372;BME280;62885;51.374;6.170;2022-08-19T12:24:30;101173.19;;;25.96;47.44
74372;BME280;62885;51.374;6.170;2022-08-19T12:26:58;101172.03;;;25.77;48.36
74372;BME280;62885;51.374;6.170;2022-08-19T12:29:24;101171.16;;;25.70;49.54
74372;BME280;62885;51.374;6.170;2022-08-19T12:31:52;101167.53;;;25.63;50.81
74372;BME280;62885;51.374;6.170;2022-08-19T12:34:18;101171.47;;;25.54;51.98
74372;BME280;62885;51.374;6.170;2022-08-19T12:36:45;101166.75;;;25.75;51.88
74372;BME280;62885;51.374;6.170;2022-08-19T12:39:10;101166.28;;;25.65;51.50
74372;BME280;62885;51.374;6.170;2022-08-19T12:41:35;101163.38;;;25.73;51.54
74372;BME280;62885;51.374;6.170;2022-08-19T12:44:01;101164.03;;;25.82;50.85
74372;BME280;62885;51.374;6.170;2022-08-19T12:46:27;101160.16;;;25.63;50.40
74372;BME280;62885;51.374;6.170;2022-08-19T12:48:52;101161.22;;;25.69;50.71
74372;BME280;62885;51.374;6.170;2022-08-19T12:51:19;101158.94;;;25.72;50.16
74372;BME280;62885;51.374;6.170;2022-08-19T12:53:46;101160.78;;;25.59;49.61
74372;BME280;62885;51.374;6.170;2022-08-19T12:56:12;101164.81;;;25.69;49.07
74372;BME280;62885;51.374;6.170;2022-08-19T12:58:40;101155.69;;;25.56;48.01
74372;BME280;62885;51.374;6.170;2022-08-19T13:01:13;101151.75;;;25.71;47.55
74372;BME280;62885;51.374;6.170;2022-08-19T13:03:39;101150.53;;;25.74;47.58
74372;BME280;62885;51.374;6.170;2022-08-19T13:06:05;101150.50;;;25.81;47.70
74372;BME280;62885;51.374;6.170;2022-08-19T13:08:31;101146.50;;;25.76;48.43
74372;BME280;62885;51.374;6.170;2022-08-19T13:10:57;101140.34;;;25.74;48.29
74372;BME280;62885;51.374;6.170;2022-08-19T13:13:23;101139.31;;;25.75;48.79